Time;durP1;ratioP1;P1;durP2;ratioP2;P2;SDS_P1;SDS_P2;PMS_P1;PMS_P2;Temp;Humidity;BMP_temperature;BMP_pressure;BME280_temperature;BME280_humidity;BME280_pressure;Samples;Min_cycle;Max_cycle;Signal;HPM_P1;HPM_P2
2022/04/11 00:00:15;;;;;;;9.10;7.38;;;22.10;43.00;;;;;;4992664;28;20033;-62
2022/04/11 00:02:41;;;;;;;10.00;7.90;;;22.10;43.10;;;;;;4991675;28;20026;-62
2022/04/11 00:05:06;;;;;;;9.13;7.13;;;22.10;43.00;;;;;;4989848;28;20022;-63
2022/04/11 00:07:32;;;;;;;10.23;7.72;;;22.10;43.00;;;;;;4995142;28;20121;-62
2022/04/11 00:09:58;;;;;;;8.57;7.32;;;22.00;43.00;;;;;;4995988;28;20427;-60
2022/04/11 00:12:23;;;;;;;9.25;6.80;;;22.00;43.00;;;;;;4994824;28;20022;-61
2022/04/11 00:14:49;;;;;;;7.90;6.57;;;22.00;43.00;;;;;;4994305;28;20029;-62
2022/04/11 00:17:14;;;;;;;8.68;6.82;;;22.00;42.90;;;;;;4992965;28;20045;-60
2022/04/11 00:19:40;;;;;;;7.88;6.18;;;22.00;42.90;;;;;;4992916;28;20026;-61
2022/04/11 00:22:06;;;;;;;8.32;6.18;;;22.00;43.00;;;;;;4994718;28;20026;-62
2022/04/11 00:24:32;;;;;;;9.05;6.68;;;22.00;43.00;;;;;;4993398;28;20033;-62
2022/04/11 00:26:57;;;;;;;8.27;6.05;;;21.90;42.90;;;;;;4995723;28;20057;-63
2022/04/11 00:29:23;;;;;;;7.57;5.68;;;21.90;42.90;;;;;;4994337;28;20117;-61
2022/04/11 00:31:48;;;;;;;7.63;5.90;;;21.90;42.90;;;;;;4993649;28;20038;-60
2022/04/11 00:34:14;;;;;;;7.72;6.05;;;21.90;42.90;;;;;;4992772;28;20030;-62
2022/04/11 00:36:40;;;;;;;7.63;5.70;;;21.90;42.90;;;;;;4993286;28;20030;-60
2022/04/11 00:39:05;;;;;;;6.63;5.47;;;21.90;43.00;;;;;;4994642;28;20041;-62
2022/04/11 00:41:31;;;;;;;6.30;4.85;;;21.90;42.90;;;;;;4993228;28;20038;-59
2022/04/11 00:43:56;;;;;;;7.55;5.45;;;21.90;42.90;;;;;;4993199;28;20026;-62
2022/04/11 00:46:22;;;;;;;6.82;5.18;;;21.80;42.90;;;;;;4994483;28;20050;-62
2022/04/11 00:48:47;;;;;;;5.97;4.88;;;21.80;42.90;;;;;;4996459;28;20038;-63
2022/04/11 00:51:20;;;;;;;6.47;4.97;;;21.80;42.90;;;;;;4997618;28;20037;-63
2022/04/11 00:53:47;;;;;;;6.22;4.80;;;21.80;42.90;;;;;;4996563;28;20057;-63
2022/04/11 00:56:16;;;;;;;6.47;4.75;;;21.80;43.00;;;;;;4997272;28;20044;-62
2022/04/11 00:58:41;;;;;;;5.85;4.45;;;21.80;42.90;;;;;;4992356;28;20037;-62
2022/04/11 01:01:08;;;;;;;6.03;4.68;;;21.80;42.90;;;;;;4997135;28;20046;-63
2022/04/11 01:03:35;;;;;;;5.43;4.47;;;21.70;43.40;;;;;;4992683;28;20102;-62
2022/04/11 01:06:01;;;;;;;6.03;4.53;;;21.70;42.90;;;;;;4995756;28;20567;-60
2022/04/11 01:08:27;;;;;;;5.82;4.40;;;21.70;42.90;;;;;;4996031;28;20394;-61
2022/04/11 01:10:53;;;;;;;5.93;4.55;;;21.70;42.90;;;;;;4996326;28;20083;-63
2022/04/11 01:13:19;;;;;;;6.03;4.20;;;21.70;42.90;;;;;;4997301;28;20602;-59
2022/04/11 01:15:55;;;;;;;5.63;4.10;;;21.70;42.90;;;;;;4997816;28;20358;-62
2022/04/11 01:18:21;;;;;;;5.15;3.83;;;21.70;43.00;;;;;;4993956;28;20512;-62
2022/04/11 01:20:47;;;;;;;5.10;3.92;;;21.60;42.90;;;;;;4998228;28;20132;-62
2022/04/11 01:23:13;;;;;;;5.72;3.80;;;21.70;43.00;;;;;;4997243;28;20126;-61
2022/04/11 01:25:39;;;;;;;5.03;3.85;;;21.60;42.90;;;;;;4996008;28;20026;-63
2022/04/11 01:28:05;;;;;;;4.88;3.47;;;21.60;42.90;;;;;;4996751;28;20092;-61
2022/04/11 01:30:31;;;;;;;4.97;3.85;;;21.60;42.90;;;;;;4997030;28;20514;-61
2022/04/11 01:32:57;;;;;;;4.53;3.65;;;21.60;43.00;;;;;;4995703;28;20100;-63
2022/04/11 01:35:27;;;;;;;4.90;3.60;;;21.60;43.00;;;;;;4996634;28;20636;-63
2022/04/11 01:37:54;;;;;;;5.15;3.90;;;21.60;43.00;;;;;;4997887;28;20053;-62
2022/04/11 01:40:20;;;;;;;4.43;3.35;;;21.60;43.00;;;;;;4997330;28;20096;-61
2022/04/11 01:42:46;;;;;;;5.43;3.35;;;21.60;43.00;;;;;;4991673;28;20126;-61
2022/04/11 01:45:15;;;;;;;5.25;3.30;;;21.50;43.00;;;;;;4994776;28;20104;-62
2022/04/11 01:47:41;;;;;;;4.90;3.60;;;21.50;43.00;;;;;;4994292;28;20053;-62
2022/04/11 01:50:10;;;;;;;4.93;3.17;;;21.50;43.00;;;;;;4994506;28;20038;-62
2022/04/11 01:52:35;;;;;;;4.45;3.10;;;21.50;43.00;;;;;;4996551;28;20037;-63
2022/04/11 01:55:03;;;;;;;3.83;3.03;;;21.50;43.00;;;;;;4996152;28;20037;-62
2022/04/11 01:57:29;;;;;;;3.97;2.90;;;21.50;43.00;;;;;;4992198;28;20037;-63
2022/04/11 01:59:55;;;;;;;4.45;2.90;;;21.50;42.90;;;;;;4992282;28;20034;-61
2022/04/11 02:02:21;;;;;;;4.28;3.10;;;21.50;43.00;;;;;;4993151;28;20107;-60
2022/04/11 02:04:46;;;;;;;4.20;2.88;;;21.50;43.00;;;;;;4995057;28;20612;-63
2022/04/11 02:07:12;;;;;;;4.05;3.10;;;21.40;42.90;;;;;;4991807;28;20026;-61
2022/04/11 02:09:37;;;;;;;3.92;2.85;;;21.40;42.90;;;;;;4996515;28;20094;-62
2022/04/11 02:12:04;;;;;;;4.05;2.70;;;21.40;43.00;;;;;;4994343;28;20533;-63
2022/04/11 02:14:30;;;;;;;3.53;2.50;;;21.40;43.00;;;;;;4994051;28;20030;-62
2022/04/11 02:16:56;;;;;;;3.80;2.75;;;21.40;43.00;;;;;;4993939;28;20108;-62
2022/04/11 02:19:22;;;;;;;3.88;2.65;;;21.40;43.00;;;;;;4995291;28;20435;-60
2022/04/11 02:21:48;;;;;;;3.90;2.22;;;21.40;43.00;;;;;;4993170;28;20069;-62
2022/04/11 02:24:14;;;;;;;4.03;2.70;;;21.30;43.00;;;;;;4994210;28;20482;-61
2022/04/11 02:26:39;;;;;;;3.65;2.65;;;21.40;43.00;;;;;;4994708;28;20036;-63
2022/04/11 02:29:05;;;;;;;3.60;2.63;;;21.40;43.00;;;;;;4993192;28;22037;-63
2022/04/11 02:31:30;;;;;;;3.50;2.42;;;21.30;43.00;;;;;;4989086;28;20030;-61
2022/04/11 02:33:56;;;;;;;3.97;2.67;;;21.30;43.00;;;;;;4988062;28;20034;-62
2022/04/11 02:36:22;;;;;;;3.10;2.40;;;21.30;43.50;;;;;;4992423;28;20030;-60
2022/04/11 02:38:47;;;;;;;3.55;2.38;;;21.30;43.00;;;;;;4995656;28;20095;-63
2022/04/11 02:41:13;;;;;;;3.38;2.38;;;21.30;43.00;;;;;;4995437;28;20592;-63
2022/04/11 02:43:38;;;;;;;3.53;2.45;;;21.30;43.00;;;;;;4992201;28;20038;-63
2022/04/11 02:46:04;;;;;;;3.15;2.17;;;21.30;43.00;;;;;;4994279;28;20034;-60
2022/04/11 02:48:29;;;;;;;2.97;2.15;;;21.20;42.90;;;;;;4993550;28;20088;-63
2022/04/11 02:50:55;;;;;;;3.80;2.40;;;21.30;43.00;;;;;;4995268;28;20121;-60
2022/04/11 02:53:21;;;;;;;3.03;2.30;;;21.30;43.00;;;;;;4993064;28;20030;-62
2022/04/11 02:55:46;;;;;;;3.28;2.30;;;21.20;43.50;;;;;;5007491;28;20036;-62
2022/04/11 02:58:12;;;;;;;3.13;2.15;;;21.20;43.00;;;;;;4994414;28;20030;-62
2022/04/11 03:00:37;;;;;;;3.00;2.10;;;21.20;43.00;;;;;;4992566;28;20068;-61
2022/04/11 03:03:04;;;;;;;3.33;2.30;;;21.20;43.00;;;;;;4991986;28;20022;-62
2022/04/11 03:05:29;;;;;;;3.08;2.03;;;21.20;43.00;;;;;;4991566;28;20038;-61
2022/04/11 03:07:55;;;;;;;3.08;2.28;;;21.20;43.00;;;;;;4995583;28;20030;-61
2022/04/11 03:10:21;;;;;;;2.85;2.00;;;21.20;43.00;;;;;;4991177;28;20117;-63
2022/04/11 03:12:46;;;;;;;2.67;2.00;;;21.20;43.00;;;;;;4993390;28;20030;-62
2022/04/11 03:15:12;;;;;;;3.30;1.88;;;21.20;43.00;;;;;;4992906;28;20037;-61
2022/04/11 03:17:38;;;;;;;2.90;2.00;;;21.20;43.00;;;;;;4992267;28;20129;-63
2022/04/11 03:20:04;;;;;;;2.63;1.95;;;21.10;43.00;;;;;;4993056;28;20048;-63
2022/04/11 03:22:30;;;;;;;2.88;2.00;;;21.10;43.00;;;;;;4994039;28;20105;-61
2022/04/11 03:24:55;;;;;;;2.80;1.90;;;21.10;43.00;;;;;;4993041;28;20092;-62
2022/04/11 03:27:21;;;;;;;3.33;2.03;;;21.10;43.00;;;;;;4994685;28;20026;-62
2022/04/11 03:29:46;;;;;;;2.63;1.80;;;21.10;43.00;;;;;;4993424;28;20052;-63
2022/04/11 03:32:12;;;;;;;2.83;1.95;;;21.10;43.00;;;;;;5002248;28;20141;-60
2022/04/11 03:34:38;;;;;;;3.30;2.00;;;21.10;43.00;;;;;;4993457;28;20034;-63
2022/04/11 03:37:04;;;;;;;2.92;1.90;;;21.10;43.00;;;;;;4993728;28;20037;-60
2022/04/11 03:39:30;;;;;;;2.45;1.73;;;21.10;43.00;;;;;;4995662;28;20490;-62
2022/04/11 03:41:55;;;;;;;3.05;2.00;;;21.10;43.00;;;;;;4992347;28;20088;-63
2022/04/11 03:44:21;;;;;;;2.92;1.90;;;21.00;43.00;;;;;;4990615;28;20042;-63
2022/04/11 03:46:47;;;;;;;2.67;1.70;;;21.00;43.00;;;;;;4991836;28;20042;-63
2022/04/11 03:49:12;;;;;;;2.95;1.83;;;21.00;43.00;;;;;;4993634;28;20121;-60
2022/04/11 03:51:38;;;;;;;2.33;1.80;;;21.00;43.00;;;;;;4993403;28;20030;-61
2022/04/11 03:54:04;;;;;;;2.35;1.60;;;21.00;43.00;;;;;;4991520;28;20125;-63
2022/04/11 03:56:29;;;;;;;2.35;1.55;;;21.00;43.00;;;;;;4992348;28;20471;-62
2022/04/11 03:58:55;;;;;;;2.50;1.70;;;21.00;43.00;;;;;;4992529;28;20030;-60
2022/04/11 04:01:21;;;;;;;2.38;1.55;;;21.00;43.00;;;;;;4990292;28;20113;-63
2022/04/11 04:03:46;;;;;;;2.40;1.60;;;21.00;43.00;;;;;;4992083;28;20402;-63
2022/04/11 04:06:12;;;;;;;2.70;1.70;;;21.00;43.00;;;;;;4991860;28;20101;-60
2022/04/11 04:08:37;;;;;;;2.33;1.50;;;21.00;43.00;;;;;;4994563;28;20036;-63
2022/04/11 04:11:03;;;;;;;2.22;1.50;;;21.00;43.00;;;;;;4992608;28;20987;-62
2022/04/11 04:13:29;;;;;;;2.40;1.60;;;21.00;43.00;;;;;;4992505;28;20022;-62
2022/04/11 04:15:55;;;;;;;2.40;1.70;;;20.90;42.90;;;;;;4991030;28;20456;-63
2022/04/11 04:18:22;;;;;;;2.22;1.38;;;20.90;42.90;;;;;;4990355;28;20121;-62
2022/04/11 04:20:47;;;;;;;2.08;1.45;;;21.00;43.00;;;;;;4993786;28;20081;-61
2022/04/11 04:23:13;;;;;;;1.90;1.33;;;20.90;42.90;;;;;;4991798;28;21875;-63
2022/04/11 04:25:39;;;;;;;1.90;1.40;;;20.90;43.00;;;;;;4992911;28;20504;-63
2022/04/11 04:28:05;;;;;;;2.40;1.48;;;20.90;42.90;;;;;;4991624;28;20033;-60
2022/04/11 04:30:30;;;;;;;2.13;1.40;;;20.90;43.00;;;;;;4991934;28;20526;-63
2022/04/11 04:32:59;;;;;;;2.40;1.40;;;20.90;42.90;;;;;;4988461;28;20084;-62
2022/04/11 04:35:25;;;;;;;1.88;1.45;;;20.90;42.90;;;;;;4990793;28;20045;-60
2022/04/11 04:37:51;;;;;;;2.30;1.30;;;20.90;43.00;;;;;;4994836;28;20386;-62
2022/04/11 04:40:16;;;;;;;2.35;1.42;;;20.90;43.00;;;;;;4993908;28;20073;-63
2022/04/11 04:42:42;;;;;;;2.35;1.60;;;20.90;43.10;;;;;;4991329;28;20478;-62
2022/04/11 04:45:08;;;;;;;2.45;1.35;;;20.90;43.00;;;;;;4992563;28;20038;-63
2022/04/11 04:47:34;;;;;;;1.92;1.33;;;20.90;43.00;;;;;;4987690;28;20057;-61
2022/04/11 04:49:59;;;;;;;2.20;1.42;;;20.90;43.00;;;;;;4994632;28;20122;-60
2022/04/11 04:52:25;;;;;;;2.17;1.48;;;20.90;43.00;;;;;;4992523;28;20374;-63
2022/04/11 04:54:51;;;;;;;2.08;1.40;;;20.80;42.90;;;;;;4993234;28;20608;-62
2022/04/11 04:57:16;;;;;;;1.88;1.30;;;20.80;42.90;;;;;;4992857;28;20607;-60
2022/04/11 04:59:42;;;;;;;1.80;1.30;;;20.90;43.00;;;;;;4991727;28;20132;-63
2022/04/11 05:02:07;;;;;;;1.73;1.20;;;20.90;43.00;;;;;;4989244;28;20095;-61
2022/04/11 05:04:34;;;;;;;2.15;1.35;;;20.80;43.00;;;;;;4991878;28;20112;-61
2022/04/11 05:07:00;;;;;;;2.10;1.17;;;20.80;43.50;;;;;;4990841;28;20130;-63
2022/04/11 05:09:26;;;;;;;2.25;1.50;;;20.80;43.00;;;;;;4992268;28;20112;-63
2022/04/11 05:11:51;;;;;;;2.08;1.30;;;20.80;43.00;;;;;;4994096;28;20538;-63
2022/04/11 05:14:17;;;;;;;2.67;1.50;;;20.80;43.00;;;;;;4991765;28;20317;-60
2022/04/11 05:16:43;;;;;;;1.90;1.20;;;20.80;43.00;;;;;;4990870;28;20557;-60
2022/04/11 05:19:09;;;;;;;1.58;1.20;;;20.80;43.10;;;;;;4989948;28;20022;-63
2022/04/11 05:21:34;;;;;;;2.08;1.30;;;20.80;43.10;;;;;;4993145;28;20117;-63
2022/04/11 05:24:00;;;;;;;1.40;1.08;;;20.80;43.10;;;;;;4991071;28;20033;-62
2022/04/11 05:26:25;;;;;;;2.00;1.23;;;20.80;43.10;;;;;;4994039;28;20058;-61
2022/04/11 05:28:51;;;;;;;2.03;1.40;;;20.80;43.10;;;;;;4991893;28;20026;-63
2022/04/11 05:31:17;;;;;;;1.80;1.20;;;20.80;43.10;;;;;;4992597;28;20041;-64
2022/04/11 05:33:44;;;;;;;1.70;1.10;;;20.70;43.00;;;;;;4989532;28;20050;-62
2022/04/11 05:36:09;;;;;;;1.85;1.17;;;20.70;43.00;;;;;;4996976;28;20030;-63
2022/04/11 05:38:35;;;;;;;1.60;1.10;;;20.70;43.00;;;;;;4995333;28;20082;-62
2022/04/11 05:41:00;;;;;;;1.60;1.15;;;20.70;43.00;;;;;;4995080;28;20026;-63
2022/04/11 05:43:26;;;;;;;1.58;1.05;;;20.80;43.10;;;;;;4993558;28;20048;-61
2022/04/11 05:45:52;;;;;;;2.03;1.15;;;20.80;43.10;;;;;;4996433;28;20414;-62
2022/04/11 05:48:17;;;;;;;1.58;1.17;;;20.80;43.10;;;;;;4989707;28;20183;-61
2022/04/11 05:50:43;;;;;;;1.80;1.30;;;20.70;43.00;;;;;;4986219;28;20074;-63
2022/04/11 05:53:08;;;;;;;2.03;1.42;;;20.70;43.00;;;;;;4991481;28;20029;-63
2022/04/11 05:55:34;;;;;;;1.70;1.10;;;20.70;43.10;;;;;;4996796;28;20032;-63
2022/04/11 05:58:00;;;;;;;1.90;1.20;;;20.70;43.00;;;;;;4996291;28;20096;-60
2022/04/11 06:00:25;;;;;;;2.70;1.20;;;20.70;43.00;;;;;;4986730;28;20103;-62
2022/04/11 06:02:51;;;;;;;1.80;1.10;;;20.70;43.00;;;;;;4986640;28;20041;-62
2022/04/11 06:05:17;;;;;;;1.35;1.10;;;20.70;43.10;;;;;;4991790;28;20140;-63
2022/04/11 06:07:43;;;;;;;1.63;1.10;;;20.70;43.00;;;;;;5005705;28;20022;-63
2022/04/11 06:10:09;;;;;;;1.52;1.10;;;20.70;43.10;;;;;;4991918;28;20110;-60
2022/04/11 06:12:36;;;;;;;1.48;1.10;;;20.70;43.10;;;;;;4995203;28;20069;-60
2022/04/11 06:15:03;;;;;;;1.33;1.00;;;20.70;43.10;;;;;;4993140;28;20037;-62
2022/04/11 06:17:29;;;;;;;1.30;1.00;;;20.70;43.10;;;;;;4990379;28;20539;-62
2022/04/11 06:19:56;;;;;;;1.83;1.10;;;20.70;43.10;;;;;;4994662;28;20088;-63
2022/04/11 06:22:23;;;;;;;1.48;1.00;;;20.70;43.10;;;;;;4993843;28;20030;-62
2022/04/11 06:24:49;;;;;;;1.67;0.93;;;20.70;43.10;;;;;;4995417;28;20454;-61
2022/04/11 06:27:15;;;;;;;1.27;1.00;;;20.70;43.10;;;;;;4996433;28;20033;-63
2022/04/11 06:29:41;;;;;;;1.30;0.90;;;20.70;43.10;;;;;;4992277;28;20520;-61
2022/04/11 06:32:08;;;;;;;1.65;1.10;;;20.60;43.10;;;;;;4991079;28;20101;-61
2022/04/11 06:34:34;;;;;;;2.00;1.10;;;20.70;43.20;;;;;;4991597;28;20026;-62
2022/04/11 06:37:00;;;;;;;1.50;1.10;;;20.60;43.10;;;;;;4992777;28;20382;-61
2022/04/11 06:39:26;;;;;;;1.42;1.02;;;20.60;43.10;;;;;;4996324;28;20080;-61
2022/04/11 06:41:52;;;;;;;1.73;1.10;;;20.60;43.00;;;;;;4995857;28;20328;-62
2022/04/11 06:44:17;;;;;;;1.45;0.90;;;20.60;43.00;;;;;;4992757;28;20040;-63
2022/04/11 06:46:43;;;;;;;1.38;1.00;;;20.60;43.00;;;;;;4991197;28;20030;-62
2022/04/11 06:49:09;;;;;;;1.63;1.00;;;20.60;43.00;;;;;;4993397;28;20033;-60
2022/04/11 06:51:34;;;;;;;1.42;0.90;;;20.60;43.00;;;;;;4991935;28;20057;-61
2022/04/11 06:54:00;;;;;;;1.50;1.13;;;20.60;43.00;;;;;;4993295;28;20083;-63
2022/04/11 06:56:26;;;;;;;1.60;1.00;;;20.60;43.00;;;;;;4993286;28;20442;-59
2022/04/11 06:58:51;;;;;;;1.40;1.00;;;20.60;42.90;;;;;;4993505;28;20612;-62
2022/04/11 07:01:17;;;;;;;1.30;0.90;;;20.60;42.90;;;;;;4991605;28;20196;-63
2022/04/11 07:03:43;;;;;;;1.67;1.02;;;20.60;42.90;;;;;;4993795;28;20042;-63
2022/04/11 07:06:10;;;;;;;1.10;0.90;;;20.60;42.90;;;;;;4990378;28;20041;-60
2022/04/11 07:08:35;;;;;;;1.63;1.20;;;20.60;43.20;;;;;;4993001;28;20436;-61
2022/04/11 07:11:01;;;;;;;1.08;0.88;;;20.60;43.40;;;;;;4994575;28;20037;-60
2022/04/11 07:13:27;;;;;;;1.50;1.00;;;20.60;42.80;;;;;;4992230;28;20049;-60
2022/04/11 07:15:53;;;;;;;1.70;0.90;;;20.60;42.80;;;;;;4992257;28;20678;-60
2022/04/11 07:18:25;;;;;;;1.52;1.10;;;20.60;42.80;;;;;;4989039;28;20033;-58
2022/04/11 07:20:51;;;;;;;1.33;1.00;;;20.60;42.80;;;;;;4993921;28;20394;-61
2022/04/11 07:23:17;;;;;;;1.27;0.90;;;20.60;42.80;;;;;;4988117;28;20274;-62
2022/04/11 07:25:42;;;;;;;1.33;0.90;;;20.60;42.80;;;;;;4992346;28;20133;-62
2022/04/11 07:28:08;;;;;;;1.30;1.00;;;20.60;42.80;;;;;;4993604;28;20057;-62
2022/04/11 07:30:34;;;;;;;1.23;1.08;;;20.50;42.80;;;;;;4993333;28;20044;-60
2022/04/11 07:33:00;;;;;;;1.30;0.90;;;20.50;42.70;;;;;;4991077;28;20057;-63
2022/04/11 07:35:26;;;;;;;1.50;1.08;;;20.50;42.80;;;;;;4990448;28;20404;-60
2022/04/11 07:37:51;;;;;;;1.45;1.00;;;20.50;42.80;;;;;;4988851;28;20143;-61
2022/04/11 07:40:17;;;;;;;1.33;0.80;;;20.50;42.80;;;;;;4993276;28;20029;-63
2022/04/11 07:42:43;;;;;;;1.40;0.90;;;20.50;42.80;;;;;;4994516;28;20038;-61
2022/04/11 07:45:09;;;;;;;2.00;1.17;;;20.50;42.80;;;;;;4988611;28;20436;-61
2022/04/11 07:47:35;;;;;;;1.25;0.85;;;20.50;42.80;;;;;;4990822;28;20478;-63
2022/04/11 07:50:00;;;;;;;1.10;0.90;;;20.50;42.80;;;;;;4990800;28;20044;-62
2022/04/11 07:52:26;;;;;;;1.58;1.00;;;20.50;42.80;;;;;;4992054;28;20029;-62
2022/04/11 07:54:52;;;;;;;1.00;0.80;;;20.50;42.80;;;;;;4991223;28;20084;-61
2022/04/11 07:57:18;;;;;;;1.83;0.90;;;20.50;42.80;;;;;;4990815;28;20100;-62
2022/04/11 07:59:44;;;;;;;0.80;0.70;;;20.50;42.80;;;;;;4992215;28;20029;-62
2022/04/11 08:02:10;;;;;;;2.17;1.02;;;20.40;42.80;;;;;;4990279;28;20034;-62
2022/04/11 08:04:35;;;;;;;1.30;0.80;;;20.50;42.90;;;;;;4989113;28;20291;-63
2022/04/11 08:07:02;;;;;;;1.50;0.95;;;20.50;43.00;;;;;;4992728;28;20113;-63
2022/04/11 08:09:28;;;;;;;1.58;0.98;;;20.40;42.90;;;;;;4990417;28;20048;-62
2022/04/11 08:11:54;;;;;;;2.13;1.05;;;20.40;43.00;;;;;;4993228;28;20033;-63
2022/04/11 08:14:20;;;;;;;1.40;0.88;;;20.40;43.00;;;;;;4991438;28;20490;-62
2022/04/11 08:16:46;;;;;;;1.10;0.82;;;20.40;43.60;;;;;;4991738;28;20030;-62
2022/04/11 08:19:12;;;;;;;1.85;1.00;;;20.40;43.10;;;;;;4991163;28;20459;-62
2022/04/11 08:21:37;;;;;;;1.90;1.00;;;20.40;43.10;;;;;;4991200;28;20116;-62
2022/04/11 08:24:04;;;;;;;2.13;1.10;;;20.40;43.10;;;;;;4988296;28;20597;-61
2022/04/11 08:26:29;;;;;;;1.15;0.82;;;20.40;43.00;;;;;;4988590;28;20034;-62
2022/04/11 08:28:55;;;;;;;1.08;0.88;;;20.40;43.20;;;;;;4992812;28;20030;-61
2022/04/11 08:31:21;;;;;;;1.45;0.90;;;20.40;43.40;;;;;;4990474;28;20093;-63
2022/04/11 08:33:46;;;;;;;1.85;0.93;;;20.40;43.40;;;;;;4987960;28;20080;-63
2022/04/11 08:36:12;;;;;;;2.22;1.10;;;20.40;43.40;;;;;;4989050;28;20030;-63
2022/04/11 08:38:38;;;;;;;1.83;1.00;;;20.40;43.40;;;;;;4991915;28;20033;-62
2022/04/11 08:41:03;;;;;;;1.90;0.95;;;20.50;43.60;;;;;;4989413;28;20049;-61
2022/04/11 08:43:32;;;;;;;3.42;1.00;;;20.40;43.80;;;;;;4990113;28;20446;-64
2022/04/11 08:46:02;;;;;;;1.92;1.00;;;20.50;43.90;;;;;;4987687;28;20073;-63
2022/04/11 08:48:28;;;;;;;2.17;1.00;;;20.50;43.90;;;;;;4988127;28;20853;-63
2022/04/11 08:50:54;;;;;;;2.72;1.15;;;20.50;44.00;;;;;;4989823;28;20117;-61
2022/04/11 08:53:23;;;;;;;6.70;1.25;;;20.50;44.00;;;;;;4991925;28;20068;-62
2022/04/11 08:55:49;;;;;;;1.92;1.10;;;20.50;44.00;;;;;;4990411;28;20478;-63
2022/04/11 08:58:15;;;;;;;3.00;1.10;;;20.50;44.10;;;;;;4991203;28;20041;-61
2022/04/11 09:00:41;;;;;;;3.33;1.08;;;20.50;44.20;;;;;;4990107;28;20030;-61
2022/04/11 09:03:07;;;;;;;2.20;1.10;;;20.50;44.30;;;;;;4990418;28;20188;-61
2022/04/11 09:05:34;;;;;;;4.57;1.20;;;20.50;44.50;;;;;;4985045;28;20030;-61
2022/04/11 09:08:00;;;;;;;1.55;0.85;;;20.50;44.60;;;;;;4991525;28;20339;-61
2022/04/11 09:10:35;;;;;;;4.35;1.30;;;20.50;44.60;;;;;;4994836;28;20026;-61
2022/04/11 09:13:10;;;;;;;2.25;1.00;;;20.60;44.80;;;;;;4992960;28;20030;-61
2022/04/11 09:15:45;;;;;;;3.30;0.90;;;20.50;44.70;;;;;;4991579;28;20382;-61
2022/04/11 09:18:11;;;;;;;1.25;0.80;;;20.50;44.70;;;;;;4991566;28;20038;-63
2022/04/11 09:20:41;;;;;;;2.78;0.88;;;20.60;44.80;;;;;;4991432;28;20038;-61
2022/04/11 09:23:18;;;;;;;1.80;0.80;;;20.60;44.80;;;;;;4995515;28;20025;-61
2022/04/11 09:25:44;;;;;;;2.72;0.80;;;20.60;44.90;;;;;;4992150;28;20039;-62
2022/04/11 09:28:11;;;;;;;2.60;1.10;;;20.60;45.00;;;;;;4997383;28;20030;-62
2022/04/11 09:30:43;;;;;;;4.28;1.10;;;20.60;45.00;;;;;;4994817;28;20117;-62
2022/04/11 09:33:10;;;;;;;2.70;0.85;;;20.60;45.10;;;;;;4986295;28;20030;-62
2022/04/11 09:35:47;;;;;;;1.42;0.90;;;20.60;45.00;;;;;;4990416;28;20105;-63
2022/04/11 09:38:18;;;;;;;1.63;0.90;;;20.60;45.00;;;;;;4992854;28;20030;-63
2022/04/11 09:40:45;;;;;;;2.97;0.90;;;20.60;44.90;;;;;;4993339;28;20446;-62
2022/04/11 09:43:14;;;;;;;1.70;0.80;;;20.60;44.80;;;;;;4995875;28;20030;-61
2022/04/11 09:45:44;;;;;;;;;;;20.60;44.80;;;;;;4995477;28;20029;-65
2022/04/11 09:48:10;;;;;;;1.38;0.82;;;20.60;44.80;;;;;;4994001;28;19905;-63
2022/04/11 09:50:35;;;;;;;1.50;0.90;;;20.60;44.70;;;;;;4994982;28;20742;-61
2022/04/11 09:53:12;;;;;;;2.85;0.90;;;20.60;44.60;;;;;;4995137;28;20022;-63
2022/04/11 09:55:39;;;;;;;2.67;1.27;;;20.60;44.60;;;;;;4997481;28;20525;-61
2022/04/11 09:58:05;;;;;;;1.75;0.80;;;20.60;45.10;;;;;;4996429;28;20135;-59
2022/04/11 10:00:34;;;;;;;2.70;1.00;;;20.60;44.50;;;;;;4993128;28;20044;-62
2022/04/11 10:03:01;;;;;;;2.60;0.98;;;20.60;44.50;;;;;;4995572;28;20034;-62
2022/04/11 10:05:27;;;;;;;2.33;0.90;;;20.60;44.50;;;;;;4995853;28;20155;-62
2022/04/11 10:07:54;;;;;;;2.63;0.90;;;20.60;44.40;;;;;;4994391;28;20026;-63
2022/04/11 10:10:22;;;;;;;3.45;1.10;;;20.60;44.50;;;;;;4995721;28;20052;-62
2022/04/11 10:12:48;;;;;;;1.05;0.70;;;20.60;44.40;;;;;;4993006;28;20856;-62
2022/04/11 10:15:14;;;;;;;1.25;0.80;;;20.60;44.40;;;;;;4990561;28;20151;-61
2022/04/11 10:17:40;;;;;;;1.27;0.80;;;20.60;44.30;;;;;;4989830;28;20370;-63
2022/04/11 10:20:06;;;;;;;2.10;0.90;;;20.60;44.30;;;;;;4992111;28;20040;-60
2022/04/11 10:22:38;;;;;;;3.45;0.80;;;20.60;44.30;;;;;;4992258;28;20030;-61
2022/04/11 10:25:06;;;;;;;2.45;0.90;;;20.60;44.30;;;;;;4991840;28;20172;-63
2022/04/11 10:27:32;;;;;;;2.20;1.00;;;20.60;44.30;;;;;;4989074;28;21101;-62
2022/04/11 10:29:59;;;;;;;1.90;0.90;;;20.60;44.30;;;;;;4990949;28;20112;-62
2022/04/11 10:32:29;;;;;;;1.85;0.93;;;20.60;44.20;;;;;;4989473;28;20092;-62
2022/04/11 10:35:08;;;;;;;1.50;0.80;;;20.60;44.20;;;;;;4982551;28;20026;-61
2022/04/11 10:37:39;;;;;;;3.13;0.90;;;20.60;44.20;;;;;;4992992;28;20240;-62
2022/04/11 10:40:17;;;;;;;2.15;1.15;;;20.60;44.20;;;;;;4994381;28;20041;-60
2022/04/11 10:42:58;;;;;;;3.58;1.00;;;20.60;44.20;;;;;;4992277;28;20106;-62
2022/04/11 10:45:36;;;;;;;1.50;0.90;;;20.60;44.30;;;;;;4993337;28;20045;-61
2022/04/11 10:48:03;;;;;;;2.28;0.80;;;20.60;44.20;;;;;;4987064;28;20041;-62
2022/04/11 10:50:36;;;;;;;3.08;1.00;;;20.60;44.20;;;;;;4991767;28;20108;-60
2022/04/11 10:53:07;;;;;;;2.25;0.95;;;20.60;44.10;;;;;;5010400;28;20022;-60
2022/04/11 10:55:33;;;;;;;2.40;1.00;;;20.70;44.10;;;;;;4997237;28;20191;-61
2022/04/11 10:58:00;;;;;;;3.05;0.90;;;20.60;43.90;;;;;;4994942;28;20037;-62
2022/04/11 11:00:35;;;;;;;2.00;0.90;;;20.60;43.90;;;;;;4993289;28;20033;-60
2022/04/11 11:03:05;;;;;;;2.53;0.90;;;20.60;43.80;;;;;;4993550;28;20382;-60
2022/04/11 11:05:38;;;;;;;2.42;1.10;;;20.70;43.80;;;;;;4981545;28;20037;-62
2022/04/11 11:08:10;;;;;;;2.33;1.00;;;20.70;43.70;;;;;;4992321;28;20026;-61
2022/04/11 11:10:50;;;;;;;1.75;0.80;;;20.70;43.70;;;;;;4985211;28;20030;-61
2022/04/11 11:13:41;;;;;;;1.77;0.95;;;20.60;43.60;;;;;;4980816;28;20057;-63
2022/04/11 11:16:06;;;;;;;2.85;1.00;;;20.60;43.50;;;;;;4980464;28;20022;-62
2022/04/11 11:18:51;;;;;;;3.72;0.90;;;20.70;43.60;;;;;;4984416;28;20025;-61
2022/04/11 11:21:44;;;;;;;1.60;0.80;;;20.70;43.90;;;;;;4982456;28;20101;-59
2022/04/11 11:24:10;;;;;;;2.00;0.90;;;20.70;43.90;;;;;;4982428;28;20048;-61
2022/04/11 11:26:46;;;;;;;1.52;0.80;;;20.70;43.90;;;;;;4983775;28;20103;-60
2022/04/11 11:29:19;;;;;;;1.75;0.73;;;20.70;44.00;;;;;;4988461;28;20524;-61
2022/04/11 11:31:46;;;;;;;4.80;1.00;;;20.70;43.90;;;;;;4977636;28;20580;-63
2022/04/11 11:34:14;;;;;;;1.92;0.65;;;20.70;44.00;;;;;;4983215;28;20100;-61
2022/04/11 11:36:41;;;;;;;5.38;0.90;;;20.70;44.10;;;;;;4982261;28;20036;-61
2022/04/11 11:39:12;;;;;;;1.90;0.70;;;20.70;44.00;;;;;;4982640;28;20042;-61
2022/04/11 11:41:42;;;;;;;2.78;0.93;;;20.70;44.10;;;;;;4980892;28;20139;-62
2022/04/11 11:44:08;;;;;;;;;;;20.70;44.10;;;;;;4982962;28;20033;-60
2022/04/11 11:46:53;;;;;;;2.33;0.88;;;20.70;44.20;;;;;;4977915;28;19924;-62
2022/04/11 11:49:20;;;;;;;2.80;0.80;;;20.70;44.20;;;;;;4984996;28;20037;-62
2022/04/11 11:51:46;;;;;;;2.80;0.90;;;20.70;44.20;;;;;;4985054;28;20034;-62
2022/04/11 11:54:12;;;;;;;2.72;0.95;;;20.70;44.20;;;;;;4986277;28;20148;-61
2022/04/11 11:56:47;;;;;;;2.85;0.90;;;20.70;44.10;;;;;;4982750;28;20824;-61
2022/04/11 11:59:17;;;;;;;3.03;0.90;;;20.70;44.10;;;;;;4985421;28;20032;-62
2022/04/11 12:04:38;;;;;;;2.47;0.88;;;20.80;44.20;;;;;;4976634;28;20104;-62
2022/04/11 12:07:04;;;;;;;2.47;0.75;;;20.80;44.20;;;;;;4982565;28;20060;-61
2022/04/11 12:09:35;;;;;;;3.00;0.88;;;20.80;44.30;;;;;;4986661;28;20030;-61
2022/04/11 12:12:02;;;;;;;2.88;0.80;;;20.80;44.20;;;;;;4987979;28;20718;-61
2022/04/11 12:14:27;;;;;;;1.70;0.70;;;20.80;44.20;;;;;;4983945;28;20054;-62
2022/04/11 12:17:00;;;;;;;3.15;0.80;;;20.80;44.30;;;;;;4983220;28;20137;-60
2022/04/11 12:19:36;;;;;;;2.97;0.70;;;20.80;44.20;;;;;;4986325;28;20112;-61
2022/04/11 12:22:12;;;;;;;1.95;0.80;;;20.80;44.10;;;;;;4987246;28;20794;-61
2022/04/11 12:24:39;;;;;;;1.77;0.70;;;20.80;44.10;;;;;;4992800;28;20306;-61
2022/04/11 12:27:06;;;;;;;2.60;0.90;;;20.80;44.00;;;;;;4983681;28;20030;-62
2022/04/11 12:29:40;;;;;;;2.97;1.05;;;20.80;44.00;;;;;;4984088;28;20141;-60
2022/04/11 12:32:12;;;;;;;2.17;0.80;;;20.80;44.00;;;;;;4983043;28;20042;-61
2022/04/11 12:34:41;;;;;;;1.90;0.80;;;20.80;43.90;;;;;;4989698;28;20490;-61
2022/04/11 12:37:08;;;;;;;2.60;1.05;;;20.80;43.70;;;;;;5004455;28;20121;-61
2022/04/11 12:39:53;;;;;;;2.30;0.90;;;20.80;43.50;;;;;;4990219;28;20030;-60
2022/04/11 12:42:26;;;;;;;1.83;0.85;;;20.80;43.10;;;;;;4993250;28;20037;-60
2022/04/11 12:45:05;;;;;;;1.25;0.80;;;20.80;42.60;;;;;;4986675;28;20040;-61
2022/04/11 12:47:30;;;;;;;1.90;0.90;;;20.80;42.20;;;;;;4984132;28;20036;-62
2022/04/11 12:49:56;;;;;;;2.58;0.90;;;20.70;42.10;;;;;;4994769;28;20026;-61